Flight Track Log - Related Links

Times and Time Zones

All times are in EDT time to prevent confusion due to time zone crossing. See the SWA920 flight status page for this flight to view local times or setup timezone preferences in your user account.

Time Position Orientation Groundspeed Altitude Reporting Facility
EDT Latitude Longitude Course Direction KTS MPH feet Rate Location/Type
Sun 04:05:57 PM 41.7667 -87.7000 180° South 172 198 2,600  Level Chicago TRACON
Sun 04:08:14 PM 41.6358 -87.7267 189° South 270 311 10,500 3,347 Climbing Chicago Center
Sun 04:09:16 PM 41.5642 -87.7722 205° Southwest 284 327 13,700 2,468 Climbing Chicago Center
Sun 04:10:18 PM 41.4628 -87.7769 182° South 363 418 15,600 2,226 Climbing Chicago Center
Sun 04:11:00 PM 41.2041 -87.8833 180° South  Level FlightAware Approximate
Sun 04:11:20 PM 41.3522 -87.7761 180° South 387 445 18,300  Level Chicago Center
Sun 04:12:22 PM 41.2367 -87.7756 180° South 407 468 20,900 2,468 Climbing Chicago Center
Sun 04:13:24 PM 41.1161 -87.7747 180° South 424 488 23,400 2,274 Climbing Chicago Center
Sun 04:14:26 PM 40.9928 -87.7753 180° South 438 504 25,600 1,742 Climbing Chicago Center
Sun 04:15:28 PM 40.8417 -87.7739 180° South 450 518 27,000 677 Climbing Chicago Center
Sun 04:16:30 PM 40.7144 -87.7728 180° South 458 527 27,000  Level Chicago Center
Sun 04:17:33 PM 40.5881 -87.7731 180° South 457 526 27,000  Level Chicago Center
Sun 04:18:35 PM 40.4617 -87.7739 180° South 455 524 27,000  Level Chicago Center
Sun 04:19:37 PM 40.3336 -87.7731 180° South 459 528 27,000  Level Chicago Center
Sun 04:20:39 PM 40.1942 -87.7667 178° South 460 529 27,000  Level Indianapolis Center
Sun 04:21:41 PM 40.0650 -87.7389 171° South 466 536 27,000  Level Indianapolis Center
Sun 04:22:43 PM 39.9369 -87.7144 172° South 466 536 27,000  Level Indianapolis Center
Sun 04:23:45 PM 39.8092 -87.6894 171° South 464 534 27,000  Level Indianapolis Center
Sun 04:24:47 PM 39.6558 -87.6606 172° South 463 533 27,000  Level Indianapolis Center
Sun 04:25:49 PM 39.5267 -87.6386 173° South 464 534 27,000  Level Indianapolis Center
Sun 04:26:51 PM 39.3983 -87.6161 172° South 464 534 27,000  Level Indianapolis Center
Sun 04:27:53 PM 39.2714 -87.5928 172° South 461 531 27,000  Level Indianapolis Center
Sun 04:28:55 PM 39.1436 -87.5700 172° South 461 531 27,000  Level Indianapolis Center
Sun 04:29:57 PM 39.0172 -87.5467 172° South 458 527 27,000  Level Indianapolis Center
Sun 04:30:59 PM 38.8917 -87.5250 172° South 455 524 27,000  Level Indianapolis Center
Sun 04:32:01 PM 38.7408 -87.4975 172° South 456 525 27,000  Level Indianapolis Center
Sun 04:33:03 PM 38.6164 -87.4761 172° South 454 522 27,000  Level Indianapolis Center
Sun 04:34:05 PM 38.4908 -87.4531 172° South 455 524 27,000  Level Indianapolis Center
Sun 04:35:07 PM 38.3667 -87.4308 172° South 454 522 27,000  Level Indianapolis Center
Sun 04:36:09 PM 38.2431 -87.4100 172° South 454 522 27,000  Level Indianapolis Center
Sun 04:37:11 PM 38.0933 -87.3856 173° South 456 525 27,000  Level Indianapolis Center
Sun 04:38:13 PM 37.9681 -87.3617 171° South 457 526 27,000  Level Indianapolis Center
Sun 04:39:15 PM 37.8425 -87.3403 172° South 457 526 27,000  Level Indianapolis Center
Sun 04:40:17 PM 37.7200 -87.3222 173° South 455 524 27,000  Level Indianapolis Center
Sun 04:41:19 PM 37.5719 -87.2947 172° South 455 524 27,000  Level Indianapolis Center
Sun 04:41:34 PM 37.5417 -87.2892 172° South 464 534 27,000 -2,080 Level Memphis Center
Sun 04:42:34 PM 37.4183 -87.2678 172° South 464 534 24,400 -2,100 Descending Memphis Center
Sun 04:43:34 PM 37.2947 -87.2414 170° South 454 522 22,800 -2,237 Descending Memphis Center
Sun 04:44:32 PM 37.1858 -87.2117 168° South 431 496 20,000 -2,600 Descending Memphis Center
Sun 04:45:34 PM 37.0703 -87.1747 166° South 421 484 17,600 -2,656 Descending Memphis Center
Sun 04:46:34 PM 36.9611 -87.1428 167° South 408 470 14,600 -2,950 Descending Memphis Center
Sun 04:47:34 PM 36.8581 -87.1106 166° South 389 448 11,700 -2,100 Descending Memphis Center
Sun 04:48:34 PM 36.7672 -87.0675 159° South 364 419 10,400 -1,100 Descending Memphis Center
Sun 04:49:34 PM 36.6847 -87.0192 155° Southeast 331 381 9,500 -650 Descending Memphis Center
Sun 04:50:34 PM 36.6211 -86.9806 154° Southeast 301 346 9,100 -200 Descending Memphis Center
Sun 04:51:34 PM 36.5533 -86.9369 153° Southeast 283 326 9,100 -400 Level Memphis Center
Sun 04:52:34 PM 36.4811 -86.8933 154° Southeast 283 326 8,300 -950 Descending Memphis Center
Sun 04:53:34 PM 36.4111 -86.8500 154° Southeast 283 326 7,200 -1,100 Descending Memphis Center
Sun 04:54:34 PM 36.3369 -86.8042 154° Southeast 283 326 6,100 -600 Descending Memphis Center
Sun 04:55:34 PM 36.2692 -86.7633 154° Southeast 283 326 6,000 -300 Descending Memphis Center
Sun 04:56:34 PM 36.1983 -86.7639 180° South 259 298 5,500 -500 Descending Memphis Center
Sun 04:57:34 PM 36.1322 -86.7900 198° South 252 290 5,000 -750 Descending Memphis Center
Sun 04:58:34 PM 36.0781 -86.7872 178° South 244 281 4,000 -1,150 Descending Memphis Center
Sun 04:59:34 PM 36.0372 -86.7481 142° Southeast 193 222 2,700 -1,250 Descending Memphis Center
Sun 05:00:34 PM 36.0611 -86.7058 55° Northeast 104 120 1,500 -1,000 Descending Memphis Center
Sun 05:01:34 PM 36.0958 -86.6889 22° Northeast 82 94 700 3,750 Descending Memphis Center
Sun 05:02:34 PM 36.0992 -86.6581 82° East 82 94 9,000 8,300 Climbing Memphis Center
Sun 05:04:00 PM 36.1167 -86.6667 90° East  Level FlightAware Approximate
Sun 05:11:00 PM 36.1245 -86.6782 90° East  Level Estimated
Sun 05:12:00 PM 36.1245 -86.6782 90° East  Level Estimated
Sun 05:13:00 PM 36.1245 -86.6782 90° East  Level Estimated
Sun 05:14:00 PM 36.1245 -86.6782 90° East  Level Estimated
Sun 05:15:00 PM 36.1245 -86.6782 90° East  Level Estimated
Sun 05:16:00 PM 36.1245 -86.6782 90° East  Level Estimated

Login

Don't have an account? Register now (free) for customized features, flight alerts, and more!